Time;durP1;ratioP1;P1;durP2;ratioP2;P2;SDS_P1;SDS_P2;PMS_P1;PMS_P2;Temp;Humidity;BMP_temperature;BMP_pressure;BME280_temperature;BME280_humidity;BME280_pressure;Samples;Min_cycle;Max_cycle;Signal;HPM_P1;HPM_P2
2022/11/20 00:01:44;;;;;;;3.8;3.1;;;;;;;;;;;;;
2022/11/20 00:04:19;;;;;;;3.5;2.8;;;;;;;;;;;;;
2022/11/20 00:06:44;;;;;;;3.9;3.2;;;;;;;;;;;;;
2022/11/20 00:09:10;;;;;;;3.5;2.6;;;;;;;;;;;;;
2022/11/20 00:11:36;;;;;;;4.4;2.7;;;;;;;;;;;;;
2022/11/20 00:14:05;;;;;;;3.3;2.4;;;;;;;;;;;;;
2022/11/20 00:16:34;;;;;;;6.2;3.6;;;;;;;;;;;;;
2022/11/20 00:19:03;;;;;;;4.1;2.9;;;;;;;;;;;;;
2022/11/20 00:21:28;;;;;;;2.8;2.5;;;;;;;;;;;;;
2022/11/20 00:23:57;;;;;;;3.5;2.4;;;;;;;;;;;;;
2022/11/20 00:26:25;;;;;;;3.5;2.6;;;;;;;;;;;;;
2022/11/20 00:28:50;;;;;;;3.2;2.6;;;;;;;;;;;;;
2022/11/20 00:31:15;;;;;;;2.9;2.6;;;;;;;;;;;;;
2022/11/20 00:33:40;;;;;;;3.6;2.2;;;;;;;;;;;;;
2022/11/20 00:36:05;;;;;;;2.9;2;;;;;;;;;;;;;
2022/11/20 00:38:44;;;;;;;4.5;2.2;;;;;;;;;;;;;
2022/11/20 00:41:11;;;;;;;3.7;2.4;;;;;;;;;;;;;
2022/11/20 00:43:36;;;;;;;2.7;2;;;;;;;;;;;;;
2022/11/20 00:46:03;;;;;;;2.9;1.9;;;;;;;;;;;;;
2022/11/20 00:48:28;;;;;;;4;2.2;;;;;;;;;;;;;
2022/11/20 00:50:54;;;;;;;2.8;1.9;;;;;;;;;;;;;
2022/11/20 00:53:19;;;;;;;3.7;2.1;;;;;;;;;;;;;
2022/11/20 00:55:44;;;;;;;3.1;2.2;;;;;;;;;;;;;
2022/11/20 00:58:09;;;;;;;3.1;2.3;;;;;;;;;;;;;
2022/11/20 01:00:34;;;;;;;2.9;2.4;;;;;;;;;;;;;
2022/11/20 01:03:01;;;;;;;3.7;2.6;;;;;;;;;;;;;
2022/11/20 01:05:26;;;;;;;6.6;2.9;;;;;;;;;;;;;
2022/11/20 01:08:04;;;;;;;5.1;3;;;;;;;;;;;;;
2022/11/20 01:10:30;;;;;;;3.2;2.1;;;;;;;;;;;;;
2022/11/20 01:13:38;;;;;;;3.8;1.9;;;;;;;;;;;;;
2022/11/20 01:15:20;;;;;;;3.1;2.3;;;;;;;;;;;;;
2022/11/20 01:17:46;;;;;;;2.7;1.8;;;;;;;;;;;;;
2022/11/20 01:20:11;;;;;;;4.9;4.1;;;;;;;;;;;;;
2022/11/20 01:22:36;;;;;;;2.5;2.3;;;;;;;;;;;;;
2022/11/20 01:25:01;;;;;;;3;2.3;;;;;;;;;;;;;
2022/11/20 01:27:27;;;;;;;2;1.7;;;;;;;;;;;;;
2022/11/20 01:29:52;;;;;;;2.9;2.2;;;;;;;;;;;;;
2022/11/20 01:32:17;;;;;;;3.1;2.3;;;;;;;;;;;;;
2022/11/20 01:34:51;;;;;;;3.2;2.6;;;;;;;;;;;;;
2022/11/20 01:37:16;;;;;;;4.3;2.3;;;;;;;;;;;;;
2022/11/20 01:39:41;;;;;;;3;2.3;;;;;;;;;;;;;
2022/11/20 01:44:32;;;;;;;4.6;2.7;;;;;;;;;;;;;
2022/11/20 01:46:57;;;;;;;3.6;2.5;;;;;;;;;;;;;
2022/11/20 01:49:22;;;;;;;5;2.9;;;;;;;;;;;;;
2022/11/20 01:51:47;;;;;;;3.3;2.2;;;;;;;;;;;;;
2022/11/20 01:54:13;;;;;;;2.9;2.5;;;;;;;;;;;;;
2022/11/20 01:56:39;;;;;;;4;2.7;;;;;;;;;;;;;
2022/11/20 01:59:05;;;;;;;2.9;2.6;;;;;;;;;;;;;
2022/11/20 02:01:32;;;;;;;3.8;2.7;;;;;;;;;;;;;
2022/11/20 02:03:57;;;;;;;2.7;2.5;;;;;;;;;;;;;
2022/11/20 02:06:23;;;;;;;4.2;2;;;;;;;;;;;;;
2022/11/20 02:08:48;;;;;;;3.9;1.9;;;;;;;;;;;;;
2022/11/20 02:11:16;;;;;;;2.3;1.8;;;;;;;;;;;;;
2022/11/20 02:13:47;;;;;;;2.3;1.9;;;;;;;;;;;;;
2022/11/20 02:16:06;;;;;;;2.5;1.9;;;;;;;;;;;;;
2022/11/20 02:18:31;;;;;;;2.2;2;;;;;;;;;;;;;
2022/11/20 02:20:56;;;;;;;2.9;2.2;;;;;;;;;;;;;
2022/11/20 02:23:22;;;;;;;4.5;2.6;;;;;;;;;;;;;
2022/11/20 02:26:19;;;;;;;3.3;2.1;;;;;;;;;;;;;
2022/11/20 02:28:45;;;;;;;3.1;1.9;;;;;;;;;;;;;
2022/11/20 02:31:10;;;;;;;3.1;2.3;;;;;;;;;;;;;
2022/11/20 02:33:35;;;;;;;2.6;2.1;;;;;;;;;;;;;
2022/11/20 02:36:00;;;;;;;3;1.9;;;;;;;;;;;;;
2022/11/20 02:38:26;;;;;;;2.3;1.8;;;;;;;;;;;;;
2022/11/20 02:40:52;;;;;;;1.9;1.7;;;;;;;;;;;;;
2022/11/20 02:43:18;;;;;;;3;1.8;;;;;;;;;;;;;
2022/11/20 02:45:43;;;;;;;2.4;1.9;;;;;;;;;;;;;
2022/11/20 02:48:09;;;;;;;2.9;1.7;;;;;;;;;;;;;
2022/11/20 02:50:34;;;;;;;3.7;1.8;;;;;;;;;;;;;
2022/11/20 02:53:00;;;;;;;2.4;1.6;;;;;;;;;;;;;
2022/11/20 02:55:28;;;;;;;2.5;1.4;;;;;;;;;;;;;
2022/11/20 02:57:55;;;;;;;3.4;2.2;;;;;;;;;;;;;
2022/11/20 03:00:20;;;;;;;2;1.7;;;;;;;;;;;;;
2022/11/20 03:02:45;;;;;;;2.4;1.8;;;;;;;;;;;;;
2022/11/20 03:05:10;;;;;;;2.1;1.6;;;;;;;;;;;;;
2022/11/20 03:07:38;;;;;;;2;1.5;;;;;;;;;;;;;
2022/11/20 03:10:03;;;;;;;2.9;1.9;;;;;;;;;;;;;
2022/11/20 03:12:32;;;;;;;2.6;1.8;;;;;;;;;;;;;
2022/11/20 03:14:57;;;;;;;1.6;1.5;;;;;;;;;;;;;
2022/11/20 03:17:23;;;;;;;2.7;2;;;;;;;;;;;;;
2022/11/20 03:19:48;;;;;;;2.8;1.8;;;;;;;;;;;;;
2022/11/20 03:22:40;;;;;;;3.4;2.1;;;;;;;;;;;;;
2022/11/20 03:25:02;;;;;;;2.5;2;;;;;;;;;;;;;
2022/11/20 03:27:28;;;;;;;2.3;1.9;;;;;;;;;;;;;
2022/11/20 03:29:53;;;;;;;2.3;1.6;;;;;;;;;;;;;
2022/11/20 03:32:18;;;;;;;2.3;1.5;;;;;;;;;;;;;
2022/11/20 03:34:43;;;;;;;2.2;1.9;;;;;;;;;;;;;
2022/11/20 03:37:09;;;;;;;2;1.6;;;;;;;;;;;;;
2022/11/20 03:39:34;;;;;;;1.7;1.5;;;;;;;;;;;;;
2022/11/20 03:42:00;;;;;;;1.7;1.6;;;;;;;;;;;;;
2022/11/20 03:44:25;;;;;;;2.9;1.7;;;;;;;;;;;;;
2022/11/20 03:46:52;;;;;;;2.2;1.7;;;;;;;;;;;;;
2022/11/20 03:49:17;;;;;;;1.6;1.5;;;;;;;;;;;;;
2022/11/20 03:51:44;;;;;;;2.3;1.4;;;;;;;;;;;;;
2022/11/20 03:54:09;;;;;;;2;1.3;;;;;;;;;;;;;
2022/11/20 03:56:34;;;;;;;1.6;1.4;;;;;;;;;;;;;
2022/11/20 03:58:59;;;;;;;1.4;1.3;;;;;;;;;;;;;
2022/11/20 04:02:38;;;;;;;1.4;1.3;;;;;;;5.39;88.99023;932.4236;;;;
2022/11/20 04:05:07;;;;;;;1.9;1.4;;;;;;;5.38;88.99023;932.4194;;;;
2022/11/20 04:11:13;;;;;;;2.3;1.6;;;;;;;5.35;89.41113;932.3218;;;;
2022/11/20 04:13:42;;;;;;;2.7;1.5;;;;;;;5.33;89.7002;932.3806;;;;
2022/11/20 04:16:11;;;;;;;2.2;1.8;;;;;;;5.27;90.02734;932.4;;;;
2022/11/20 04:18:36;;;;;;;3.8;2.4;;;;;;;5.09;90.27832;932.3959;;;;
2022/11/20 04:21:04;;;;;;;3.2;2.3;;;;;;;4.93;91.27148;932.4279;;;;
2022/11/20 04:23:29;;;;;;;2.3;1.9;;;;;;;5.08;91.02246;932.4778;;;;
2022/11/20 04:25:56;;;;;;;3;2.4;;;;;;;5.14;90.85352;932.4073;;;;
2022/11/20 04:28:21;;;;;;;5.9;2.4;;;;;;;5.14;91.09277;932.3892;;;;
2022/11/20 04:30:46;;;;;;;4.2;2.6;;;;;;;5.2;91.08203;932.4172;;;;
2022/11/20 04:33:14;;;;;;;4;3;;;;;;;5.23;91.16797;932.3108;;;;
2022/11/20 04:35:39;;;;;;;2.8;2.5;;;;;;;5.31;91.08398;932.3873;;;;
2022/11/20 04:38:04;;;;;;;3.2;2;;;;;;;5.35;90.70996;932.3716;;;;
2022/11/20 04:40:29;;;;;;;3.1;2.3;;;;;;;5.33;90.26465;932.3797;;;;
2022/11/20 04:43:00;;;;;;;3.6;2.2;;;;;;;5.3;90.13477;932.38;;;;
2022/11/20 04:48:00;;;;;;;3;2.3;;;;;;;5.36;89.64941;932.2999;;;;
2022/11/20 04:50:34;;;;;;;3.5;2.1;;;;;;;5.37;89.83203;932.3742;;;;
2022/11/20 04:53:00;;;;;;;3;2.3;;;;;;;5.3;90.09863;932.3484;;;;
2022/11/20 04:55:25;;;;;;;4.3;2.7;;;;;;;5.27;90.00293;932.2823;;;;
2022/11/20 04:57:53;;;;;;;3.1;2.4;;;;;;;5.24;89.97266;932.34;;;;
2022/11/20 05:00:29;;;;;;;4.4;2.9;;;;;;;5.23;89.51074;932.3691;;;;
2022/11/20 05:03:27;;;;;;;3.7;2.4;;;;;;;5.27;88.75098;932.3889;;;;
2022/11/20 05:05:54;;;;;;;6.9;3.8;;;;;;;5.24;88.7793;932.3007;;;;
2022/11/20 05:08:19;;;;;;;5.2;3.5;;;;;;;5.17;89.2627;932.3875;;;;
2022/11/20 05:10:45;;;;;;;3.8;2.9;;;;;;;5.11;89.92383;932.3664;;;;
2022/11/20 05:13:10;;;;;;;3.5;3;;;;;;;5.11;90.10449;932.4359;;;;
2022/11/20 05:15:36;;;;;;;5.8;3.4;;;;;;;5.01;90.96191;932.493;;;;
2022/11/20 05:18:02;;;;;;;4.6;3.4;;;;;;;4.99;91.29492;932.5254;;;;
2022/11/20 05:20:27;;;;;;;4.9;3.2;;;;;;;4.98;91.06934;932.4867;;;;
2022/11/20 05:22:55;;;;;;;8.7;4.7;;;;;;;4.9;91.27734;932.4991;;;;
2022/11/20 05:25:29;;;;;;;4.9;3.6;;;;;;;4.83;91.72559;932.4906;;;;
2022/11/20 05:31:44;;;;;;;4.7;3.1;;;;;;;5;90.89453;932.4572;;;;
2022/11/20 05:34:11;;;;;;;8.9;4.5;;;;;;;5.05;90.72363;932.4608;;;;
2022/11/20 05:36:43;;;;;;;4.3;2.8;;;;;;;5.09;90.46094;932.5609;;;;
2022/11/20 05:39:15;;;;;;;2.2;1.8;;;;;;;5.11;90.12695;932.5115;;;;
2022/11/20 05:42:29;;;;;;;2.5;2.1;;;;;;;5.02;90.20898;932.5524;;;;
2022/11/20 05:44:13;;;;;;;2.9;1.9;;;;;;;5.06;90.09473;932.5778;;;;
2022/11/20 05:46:42;;;;;;;2.7;2;;;;;;;5.12;89.88086;932.5748;;;;
2022/11/20 05:54:08;;;;;;;2.6;2.4;;;;;;;4.99;90.53027;932.5894;;;;
2022/11/20 05:56:33;;;;;;;3.1;2.1;;;;;;;5.02;90.67285;932.6495;;;;
2022/11/20 05:59:00;;;;;;;2.9;1.9;;;;;;;5.07;90.6377;932.6332;;;;
2022/11/20 06:01:25;;;;;;;3.1;2.4;;;;;;;5;90.54492;932.7364;;;;
2022/11/20 06:03:55;;;;;;;3.6;2;;;;;;;4.93;91.02344;932.697;;;;
2022/11/20 06:06:25;;;;;;;2.7;2.1;;;;;;;4.97;90.97754;932.697;;;;
2022/11/20 06:08:50;;;;;;;2.5;2.3;;;;;;;5.04;90.37207;932.7155;;;;
2022/11/20 06:11:15;;;;;;;2.2;2;;;;;;;5.08;90.21094;932.7303;;;;
2022/11/20 06:13:44;;;;;;;3.1;2;;;;;;;5.09;90.04395;932.7204;;;;
2022/11/20 06:16:10;;;;;;;2.9;2.2;;;;;;;5.11;90.36523;932.7397;;;;
2022/11/20 06:18:37;;;;;;;3.2;2.2;;;;;;;5.2;90.20215;932.6736;;;;
2022/11/20 06:21:02;;;;;;;3.7;2.3;;;;;;;5.23;89.93945;932.707;;;;
2022/11/20 06:23:29;;;;;;;3.2;2.1;;;;;;;5.22;89.86914;932.6397;;;;
2022/11/20 06:25:54;;;;;;;3.9;2;;;;;;;5.14;90.06445;932.7378;;;;
2022/11/20 06:28:22;;;;;;;4.6;2;;;;;;;5.11;90.13965;932.6672;;;;
2022/11/20 06:30:47;;;;;;;3.6;2;;;;;;;5.09;90.01953;932.7021;;;;
2022/11/20 06:33:15;;;;;;;3.7;1.8;;;;;;;5.07;89.62109;932.7316;;;;
2022/11/20 06:35:40;;;;;;;2.1;1.9;;;;;;;5;89.66602;932.7623;;;;
2022/11/20 06:38:09;;;;;;;3.2;1.9;;;;;;;5;89.75391;932.7868;;;;
2022/11/20 06:40:34;;;;;;;2.3;2.1;;;;;;;4.97;89.44238;932.8342;;;;
2022/11/20 06:43:02;;;;;;;7.2;3.4;;;;;;;4.94;89.82227;932.7667;;;;
2022/11/20 06:45:27;;;;;;;3.8;3;;;;;;;4.89;90.23828;932.8074;;;;
2022/11/20 06:47:52;;;;;;;4.5;3.2;;;;;;;4.89;90.26074;932.865;;;;
2022/11/20 06:50:19;;;;;;;7.8;3.7;;;;;;;4.86;89.69043;932.9068;;;;
2022/11/20 06:52:44;;;;;;;5.6;4.3;;;;;;;4.75;89.82715;932.8742;;;;
2022/11/20 06:56:09;;;;;;;6.4;4.2;;;;;;;4.72;90.21387;932.9666;;;;
2022/11/20 06:58:37;;;;;;;5.1;3;;;;;;;4.72;90.79883;933.0297;;;;
2022/11/20 07:02:28;;;;;;;6.2;3.7;;;;;;;4.75;90.68262;932.9988;;;;
2022/11/20 07:04:53;;;;;;;5;3.3;;;;;;;4.77;90.59668;933.1167;;;;
2022/11/20 07:07:23;;;;;;;7.4;4.2;;;;;;;4.79;90.71289;933.0761;;;;
2022/11/20 07:09:53;;;;;;;10.5;7;;;;;;;4.89;90.01367;933.1236;;;;
2022/11/20 07:12:18;;;;;;;11.4;6.9;;;;;;;4.84;90.24023;933.1802;;;;
2022/11/20 07:14:45;;;;;;;4;3.1;;;;;;;4.84;90.20605;933.1849;;;;
2022/11/20 07:17:11;;;;;;;3.1;2.3;;;;;;;5;89.69824;933.2356;;;;
2022/11/20 07:19:36;;;;;;;3.2;1.9;;;;;;;5;89.27148;933.2499;;;;
2022/11/20 07:22:03;;;;;;;2.2;1.7;;;;;;;4.99;89.50488;933.2394;;;;
2022/11/20 07:24:28;;;;;;;7.6;3.1;;;;;;;5.15;89.60645;933.2471;;;;
2022/11/20 07:26:54;;;;;;;4.9;2.8;;;;;;;5.3;89.31152;933.3185;;;;
2022/11/20 07:29:19;;;;;;;2.9;2.5;;;;;;;5.41;88.65723;933.3558;;;;
2022/11/20 07:31:45;;;;;;;4.2;2.2;;;;;;;5.5;88.39355;933.3577;;;;
2022/11/20 07:34:10;;;;;;;5.2;2.6;;;;;;;5.5;88.65332;933.3837;;;;
2022/11/20 07:36:41;;;;;;;4.4;3.3;;;;;;;5.68;89.08594;933.3536;;;;
2022/11/20 07:39:08;;;;;;;4.9;4.1;;;;;;;5.75;86.84082;933.3778;;;;
2022/11/20 07:41:34;;;;;;;4.1;3.2;;;;;;;5.89;86.1582;933.346;;;;
2022/11/20 07:43:59;;;;;;;3.2;2.8;;;;;;;5.98;85.9502;933.2784;;;;
2022/11/20 07:46:27;;;;;;;4.9;3.4;;;;;;;6.08;86.16309;933.3675;;;;
2022/11/20 07:48:52;;;;;;;4.3;3;;;;;;;6.18;85.52734;933.4239;;;;
2022/11/20 07:51:18;;;;;;;3.1;2.1;;;;;;;6.16;85.27344;933.4519;;;;
2022/11/20 07:53:44;;;;;;;4.6;2.9;;;;;;;6.31;84.3877;933.4722;;;;
2022/11/20 07:56:10;;;;;;;6.1;3.9;;;;;;;6.23;83.88574;933.391;;;;
2022/11/20 07:58:37;;;;;;;3.4;2.9;;;;;;;6.58;84.28418;933.3759;;;;
2022/11/20 08:01:02;;;;;;;5.8;2.8;;;;;;;6.67;80.72656;933.3967;;;;
2022/11/20 08:03:30;;;;;;;4.6;3.1;;;;;;;7.27;79.34277;933.3572;;;;
2022/11/20 08:05:55;;;;;;;7.4;4.3;;;;;;;7.88;76.00488;933.3364;;;;
2022/11/20 08:08:22;;;;;;;6.6;4.5;;;;;;;8.38;74.74316;933.3537;;;;
2022/11/20 08:10:47;;;;;;;9.2;4.5;;;;;;;8.71;70.71777;933.3477;;;;
2022/11/20 08:15:43;;;;;;;3.9;3.1;;;;;;;7.76;74.10156;933.3839;;;;
2022/11/20 08:22:33;;;;;;;3.2;2.3;;;;;;;10.73;64.84668;933.4141;;;;
2022/11/20 08:24:59;;;;;;;3.8;2.2;;;;;;;11.99;59.59375;933.3047;;;;
2022/11/20 08:27:24;;;;;;;3.9;2.7;;;;;;;12.26;57.08594;933.2714;;;;
2022/11/20 08:29:51;;;;;;;4.5;2.6;;;;;;;11.97;59.11035;933.3439;;;;
2022/11/20 08:32:17;;;;;;;3.2;2.7;;;;;;;12.25;56.9707;933.3537;;;;
2022/11/20 08:34:46;;;;;;;4.5;2.9;;;;;;;11.17;60.17871;933.3819;;;;
2022/11/20 08:37:10;;;;;;;3;2.3;;;;;;;10.9;60.9873;933.3555;;;;
2022/11/20 08:39:36;;;;;;;3.1;2.4;;;;;;;10.32;62.94922;933.3467;;;;
2022/11/20 08:42:03;;;;;;;3.4;2.6;;;;;;;9.71;65.33203;933.4167;;;;
2022/11/20 08:44:28;;;;;;;4.3;2.8;;;;;;;9.33;66.66406;933.2838;;;;
2022/11/20 08:46:54;;;;;;;3.6;2.9;;;;;;;8.87;69.28809;933.3444;;;;
2022/11/20 08:49:20;;;;;;;4.3;3.2;;;;;;;8.55;70.38379;933.2539;;;;
2022/11/20 08:51:51;;;;;;;5.4;3.1;;;;;;;7.88;73.36328;933.3293;;;;
2022/11/20 08:54:13;;;;;;;3.2;2.7;;;;;;;7.74;74.7998;933.2592;;;;
2022/11/20 08:56:40;;;;;;;4.5;3.3;;;;;;;7.48;76.05957;933.358;;;;
2022/11/20 08:59:05;;;;;;;3.6;2.8;;;;;;;7.41;77.47363;933.2386;;;;
2022/11/20 09:01:31;;;;;;;3;2.7;;;;;;;7.52;76.98438;933.2642;;;;
2022/11/20 09:03:57;;;;;;;2.7;2.3;;;;;;;7.54;77.27148;933.2233;;;;
2022/11/20 09:06:23;;;;;;;4.9;3;;;;;;;7.57;76.59766;933.2244;;;;
2022/11/20 09:08:48;;;;;;;2.3;1.9;;;;;;;7.52;76.28125;933.2301;;;;
2022/11/20 09:11:13;;;;;;;2.5;2.2;;;;;;;7.49;75.8916;933.2274;;;;
2022/11/20 09:13:40;;;;;;;2.7;2.1;;;;;;;7.36;75.45898;933.2294;;;;
2022/11/20 09:16:06;;;;;;;2.8;2.4;;;;;;;7.22;78.00781;933.1443;;;;
2022/11/20 09:21:44;;;;;;;3.2;2.3;;;;;;;7.32;77.50586;933.2258;;;;
2022/11/20 09:24:11;;;;;;;3.7;2.3;;;;;;;7.37;78.0127;933.2399;;;;
2022/11/20 09:26:36;;;;;;;3.7;2.6;;;;;;;7.36;76.77441;933.2491;;;;
2022/11/20 09:29:02;;;;;;;2;1.5;;;;;;;7.35;75.42383;933.2545;;;;
2022/11/20 09:31:27;;;;;;;3.5;1.7;;;;;;;7.35;74.91406;933.1888;;;;
2022/11/20 09:33:52;;;;;;;1.3;1.1;;;;;;;7.45;71.88281;933.2056;;;;
2022/11/20 09:36:18;;;;;;;1.1;1;;;;;;;7.59;70.6582;933.2223;;;;
2022/11/20 09:38:47;;;;;;;1.5;1.1;;;;;;;7.73;71.52051;933.1561;;;;
2022/11/20 09:41:11;;;;;;;0.8;0.8;;;;;;;7.73;68.31152;933.0817;;;;
2022/11/20 09:43:36;;;;;;;0.8;0.7;;;;;;;7.81;65.95117;932.9655;;;;
2022/11/20 09:46:01;;;;;;;0.6;0.6;;;;;;;7.65;65.34961;932.8976;;;;
2022/11/20 09:48:27;;;;;;;1.3;0.7;;;;;;;7.56;64.4502;932.9241;;;;
2022/11/20 09:50:54;;;;;;;1.3;0.9;;;;;;;7.39;65.80957;932.9621;;;;
2022/11/20 09:53:19;;;;;;;1.1;0.9;;;;;;;7.45;65.84082;932.8506;;;;
2022/11/20 09:55:44;;;;;;;1.3;0.7;;;;;;;7.53;65.18262;932.7755;;;;
2022/11/20 09:58:11;;;;;;;1.9;0.9;;;;;;;7.47;63.40625;932.7899;;;;
2022/11/20 10:00:40;;;;;;;1.5;1.1;;;;;;;7.65;64;932.8089;;;;
2022/11/20 10:03:06;;;;;;;1;0.8;;;;;;;7.86;64.32617;932.81;;;;
2022/11/20 10:05:30;;;;;;;1.1;1;;;;;;;7.96;61.86621;932.7689;;;;
2022/11/20 10:07:56;;;;;;;2.1;1.6;;;;;;;8.08;60.75977;932.7411;;;;
2022/11/20 10:10:23;;;;;;;9.4;5;;;;;;;8.05;58.87109;932.6908;;;;
2022/11/20 10:12:49;;;;;;;9;4.7;;;;;;;8.14;55.86328;932.5934;;;;
2022/11/20 10:15:16;;;;;;;3.7;2.2;;;;;;;8.25;54.69629;932.5907;;;;
2022/11/20 10:17:48;;;;;;;0.8;0.8;;;;;;;8.27;53.2793;932.6312;;;;
2022/11/20 10:20:16;;;;;;;1.6;1;;;;;;;8.49;60.18164;932.6005;;;;
2022/11/20 10:22:42;;;;;;;1.1;0.9;;;;;;;8.69;56.07227;932.5872;;;;
2022/11/20 10:25:07;;;;;;;1.1;0.6;;;;;;;8.78;54.83105;932.5067;;;;
2022/11/20 10:27:32;;;;;;;0.6;0.6;;;;;;;8.68;54.50098;932.5259;;;;
2022/11/20 10:29:57;;;;;;;0.6;0.5;;;;;;;8.93;56.8418;932.5334;;;;
2022/11/20 10:32:23;;;;;;;1.4;0.5;;;;;;;8.89;52.95801;932.4911;;;;
2022/11/20 10:34:52;;;;;;;0.6;0.5;;;;;;;8.98;52.37793;932.5115;;;;
2022/11/20 10:37:17;;;;;;;0.5;0.5;;;;;;;8.88;52.47949;932.4473;;;;
2022/11/20 10:39:42;;;;;;;0.4;0.4;;;;;;;8.9;54.11914;932.5087;;;;
2022/11/20 10:42:08;;;;;;;1.3;0.7;;;;;;;8.94;52.40625;932.462;;;;
2022/11/20 10:47:00;;;;;;;0.5;0.5;;;;;;;8.79;52.8877;932.3052;;;;
2022/11/20 10:49:25;;;;;;;0.4;0.4;;;;;;;8.86;53.09082;932.3131;;;;
2022/11/20 10:51:50;;;;;;;0.7;0.7;;;;;;;8.88;51.30762;932.3497;;;;
2022/11/20 10:54:18;;;;;;;0.9;0.7;;;;;;;9.01;50.62891;932.2997;;;;
2022/11/20 10:56:44;;;;;;;0.7;0.5;;;;;;;9.04;50.59766;932.312;;;;
2022/11/20 10:59:11;;;;;;;0.5;0.5;;;;;;;9;48.47754;932.2424;;;;
2022/11/20 11:01:36;;;;;;;0.6;0.4;;;;;;;9.07;47.94043;932.1622;;;;
2022/11/20 11:04:01;;;;;;;1.1;1;;;;;;;9.15;49.13184;932.1418;;;;
2022/11/20 11:06:26;;;;;;;0.9;0.7;;;;;;;9.21;48.54688;932.14;;;;
2022/11/20 11:08:51;;;;;;;1;0.8;;;;;;;9.19;47.46289;932.1443;;;;
2022/11/20 11:11:17;;;;;;;0.7;0.7;;;;;;;9.28;47.0752;932.1277;;;;
2022/11/20 11:13:43;;;;;;;2.2;0.7;;;;;;;9.41;48.78613;932.1364;;;;
2022/11/20 11:16:13;;;;;;;0.9;0.4;;;;;;;9.43;46.21387;932.0474;;;;
2022/11/20 11:18:41;;;;;;;1.2;1;;;;;;;9.57;48.33594;932.1329;;;;
2022/11/20 11:21:06;;;;;;;1;0.7;;;;;;;9.53;46.02051;932.1877;;;;
2022/11/20 11:23:33;;;;;;;1.5;1;;;;;;;9.83;47.41992;932.17;;;;
2022/11/20 11:25:58;;;;;;;1.2;0.9;;;;;;;10.12;46.29883;932.1842;;;;
2022/11/20 11:28:25;;;;;;;1.1;0.5;;;;;;;10.3;42.07422;932.1802;;;;
2022/11/20 11:30:51;;;;;;;0.4;0.4;;;;;;;10.89;41.86816;932.0923;;;;
2022/11/20 11:33:16;;;;;;;0.6;0.3;;;;;;;12.59;37.85742;931.9647;;;;
2022/11/20 11:35:43;;;;;;;0.3;0.3;;;;;;;14.88;36.75293;931.9096;;;;
2022/11/20 11:38:09;;;;;;;0.5;0.5;;;;;;;14.7;34.35156;931.983;;;;
2022/11/20 11:40:36;;;;;;;0.4;0.4;;;;;;;16.35;32.47949;931.9346;;;;
2022/11/20 11:43:01;;;;;;;1.1;0.5;;;;;;;17.68;30.83691;931.8406;;;;
2022/11/20 11:45:27;;;;;;;0.5;0.5;;;;;;;17.02;29.88672;931.8948;;;;
2022/11/20 11:47:52;;;;;;;0.4;0.4;;;;;;;16.74;30.51758;931.9052;;;;
2022/11/20 11:50:20;;;;;;;1.6;0.4;;;;;;;18.73;29.08496;931.9235;;;;
2022/11/20 11:52:50;;;;;;;0.1;0.1;;;;;;;17.72;27.75195;931.8176;;;;
2022/11/20 11:55:16;;;;;;;0.6;0.3;;;;;;;15.36;31.27441;931.8373;;;;
2022/11/20 11:57:42;;;;;;;0.1;0.1;;;;;;;16.5;31.94629;931.7426;;;;
2022/11/20 12:00:11;;;;;;;0.6;0.4;;;;;;;17.86;28.26074;931.7647;;;;
2022/11/20 12:02:36;;;;;;;0.8;0.3;;;;;;;16.25;31.18848;931.8131;;;;
2022/11/20 12:05:01;;;;;;;0.2;0.2;;;;;;;15.36;31.0332;931.8187;;;;
2022/11/20 12:07:27;;;;;;;0.5;0.2;;;;;;;13.57;32.31934;931.8939;;;;
2022/11/20 12:09:53;;;;;;;0.4;0.2;;;;;;;14.18;33.6084;931.8152;;;;
2022/11/20 12:12:22;;;;;;;0.2;0.2;;;;;;;13.75;33.94336;931.8142;;;;
2022/11/20 12:14:48;;;;;;;0.1;0.1;;;;;;;13.46;33.49512;931.7977;;;;
2022/11/20 12:17:17;;;;;;;0.1;0.1;;;;;;;14.17;33.90723;931.8201;;;;
2022/11/20 12:19:46;;;;;;;0.1;0.1;;;;;;;13.92;34.12891;931.978;;;;
2022/11/20 12:22:17;;;;;;;0.2;0.2;;;;;;;12.44;35.64258;931.9628;;;;
2022/11/20 12:24:48;;;;;;;0.2;0.2;;;;;;;11.57;35.81152;931.8741;;;;
2022/11/20 12:27:15;;;;;;;0.4;0.2;;;;;;;11.24;38.02539;931.8616;;;;
2022/11/20 12:29:46;;;;;;;0.2;0.2;;;;;;;11.71;36.55469;931.9422;;;;
2022/11/20 12:32:12;;;;;;;0.2;0.2;;;;;;;12.09;37.45801;931.8187;;;;
2022/11/20 12:34:37;;;;;;;0.5;0.3;;;;;;;13.79;34.30371;931.7809;;;;
2022/11/20 12:37:03;;;;;;;0.1;0.1;;;;;;;14.36;31.28418;931.8633;;;;
2022/11/20 12:39:29;;;;;;;0.6;0.4;;;;;;;15.55;31.80859;931.8049;;;;
2022/11/20 12:46:52;;;;;;;1.9;0.6;;;;;;;18.16;28.15234;931.7433;;;;
2022/11/20 12:49:17;;;;;;;0.3;0.3;;;;;;;16.17;28.66113;931.7969;;;;
2022/11/20 12:53:31;;;;;;;0.7;0.4;;;;;;;13.29;33.34473;931.8937;;;;
2022/11/20 12:55:57;;;;;;;3.3;2.3;;;;;;;12.82;35.83398;931.7196;;;;
2022/11/20 12:58:22;;;;;;;1.7;1.4;;;;;;;13.14;35.27344;931.7269;;;;
2022/11/20 13:00:48;;;;;;;0.3;0.3;;;;;;;13.24;32.31738;931.6697;;;;
2022/11/20 13:03:14;;;;;;;0.2;0.1;;;;;;;13.84;30.95898;931.7294;;;;
2022/11/20 13:05:42;;;;;;;1.2;0.1;;;;;;;14.15;31.0625;931.6685;;;;
2022/11/20 13:08:10;;;;;;;1.7;0.3;;;;;;;16.36;29.3916;931.6265;;;;
2022/11/20 13:10:37;;;;;;;0.5;0.5;;;;;;;16.82;30.00098;931.4324;;;;
2022/11/20 13:13:02;;;;;;;1.7;0.4;;;;;;;16.74;27.93359;931.4391;;;;
2022/11/20 13:15:28;;;;;;;0.3;0.3;;;;;;;15.14;29.77051;931.2486;;;;
2022/11/20 13:17:53;;;;;;;0.8;0.1;;;;;;;14.69;32.19531;931.3741;;;;
2022/11/20 13:20:18;;;;;;;0.2;0.2;;;;;;;15.04;30.01758;931.264;;;;
2022/11/20 13:22:43;;;;;;;0.2;0.2;;;;;;;18.62;27.21582;931.274;;;;
2022/11/20 13:25:12;;;;;;;0.9;0.2;;;;;;;20.29;25.97754;931.1895;;;;
2022/11/20 13:27:37;;;;;;;0.6;0.5;;;;;;;19.66;26.56934;931.1814;;;;
2022/11/20 13:30:03;;;;;;;1;0.2;;;;;;;20.5;25.26563;931.1631;;;;
2022/11/20 13:32:31;;;;;;;0.1;0.1;;;;;;;16.98;26.7207;931.0905;;;;
2022/11/20 13:34:54;;;;;;;0.3;0.2;;;;;;;17.15;28.5166;931.0588;;;;
2022/11/20 13:37:20;;;;;;;0.4;0.2;;;;;;;17.74;27.02246;931.0342;;;;
2022/11/20 13:39:45;;;;;;;0.2;0.2;;;;;;;15.83;28.32715;931.0703;;;;
2022/11/20 13:42:10;;;;;;;1.8;1.5;;;;;;;15.04;29.99512;931.0852;;;;
2022/11/20 13:44:37;;;;;;;0.9;0.5;;;;;;;14.37;31.75684;931.1567;;;;
2022/11/20 13:47:04;;;;;;;0.8;0.3;;;;;;;12.61;33.7627;931.0701;;;;
2022/11/20 13:49:29;;;;;;;0.6;0.4;;;;;;;12.66;35.87793;931.1194;;;;
2022/11/20 13:51:57;;;;;;;1.1;0.5;;;;;;;12.39;36.08496;931.1278;;;;
2022/11/20 13:54:26;;;;;;;0.4;0.3;;;;;;;12.3;37.93555;931.0128;;;;
2022/11/20 13:56:53;;;;;;;0.4;0.3;;;;;;;11.85;36.75;931.0342;;;;
2022/11/20 13:59:22;;;;;;;2.1;0.7;;;;;;;10.92;37.18555;931.0503;;;;
2022/11/20 14:01:48;;;;;;;0.4;0.4;;;;;;;10.83;37.05273;930.9997;;;;
2022/11/20 14:04:18;;;;;;;0.3;0.3;;;;;;;10.92;39.09473;930.9978;;;;
2022/11/20 14:06:43;;;;;;;0.4;0.4;;;;;;;10.88;37.10254;930.9558;;;;
2022/11/20 14:09:08;;;;;;;0.4;0.4;;;;;;;10.75;37.39941;930.9678;;;;
2022/11/20 14:11:33;;;;;;;0.6;0.6;;;;;;;12.16;37.8418;930.95;;;;
2022/11/20 14:13:59;;;;;;;1.1;0.8;;;;;;;11.83;40.09277;930.9419;;;;
2022/11/20 14:16:34;;;;;;;0.9;0.8;;;;;;;11.11;42.00391;930.9519;;;;
2022/11/20 14:18:59;;;;;;;1.1;0.7;;;;;;;10.79;42.94336;930.9836;;;;
2022/11/20 14:21:25;;;;;;;1.1;1;;;;;;;10.78;42.8623;930.9016;;;;
2022/11/20 14:23:49;;;;;;;0.8;0.8;;;;;;;10.8;42.30566;930.9263;;;;
2022/11/20 14:26:14;;;;;;;1.1;0.5;;;;;;;10.53;43.4209;930.9084;;;;
2022/11/20 14:28:41;;;;;;;0.8;0.6;;;;;;;10.3;44.04785;930.9963;;;;
2022/11/20 14:31:06;;;;;;;4.6;4.2;;;;;;;9.99;46.27441;930.8898;;;;
2022/11/20 14:33:31;;;;;;;5;4.5;;;;;;;9.77;48.19922;930.9014;;;;
2022/11/20 14:35:58;;;;;;;2.7;2.5;;;;;;;9.45;48.70996;930.9549;;;;
2022/11/20 14:38:23;;;;;;;3.4;2.7;;;;;;;9.44;49.62012;930.9224;;;;
2022/11/20 14:40:53;;;;;;;4.8;2.4;;;;;;;9.36;50.31738;930.9799;;;;
2022/11/20 14:43:17;;;;;;;2.2;2;;;;;;;9.2;50.89063;930.9221;;;;
2022/11/20 14:45:43;;;;;;;3.4;1.9;;;;;;;8.99;53.15234;930.9822;;;;
2022/11/20 14:48:08;;;;;;;2.2;1.7;;;;;;;9.03;51.48535;930.9334;;;;
2022/11/20 14:50:33;;;;;;;1.9;1.8;;;;;;;8.91;54.29199;930.8836;;;;
2022/11/20 14:52:58;;;;;;;3.3;1.9;;;;;;;8.83;51.93945;931.0031;;;;
2022/11/20 14:55:26;;;;;;;3.3;1.3;;;;;;;8.72;53.79004;930.9825;;;;
2022/11/20 14:57:51;;;;;;;3.3;1.7;;;;;;;8.34;55.74121;930.9713;;;;
2022/11/20 15:00:22;;;;;;;3.3;2;;;;;;;8.36;54.91602;931.0103;;;;
2022/11/20 15:02:47;;;;;;;23.6;12.3;;;;;;;8.28;55.51758;931.0174;;;;
2022/11/20 15:05:12;;;;;;;12.6;7;;;;;;;8;55.45996;931.08;;;;
2022/11/20 15:07:39;;;;;;;5.1;2.8;;;;;;;8.07;55.21875;931.072;;;;
2022/11/20 15:10:04;;;;;;;5.1;2.8;;;;;;;8.06;55.64844;931.0212;;;;
2022/11/20 15:12:31;;;;;;;9.2;5.8;;;;;;;7.84;56.75391;931.1342;;;;
2022/11/20 15:14:56;;;;;;;7.7;5.6;;;;;;;7.68;57.1416;931.1082;;;;
2022/11/20 15:17:21;;;;;;;3.4;3;;;;;;;7.49;58.18262;931.0863;;;;
2022/11/20 15:19:50;;;;;;;4.2;3;;;;;;;7.36;58.16504;931.0619;;;;
2022/11/20 15:22:16;;;;;;;5.6;3.7;;;;;;;7.27;59.36523;931.0364;;;;
2022/11/20 15:24:42;;;;;;;9.2;6.7;;;;;;;7.18;59.35156;930.9941;;;;
2022/11/20 15:27:07;;;;;;;7.4;5;;;;;;;7.05;59.4707;930.9714;;;;
2022/11/20 15:29:35;;;;;;;5.2;3.4;;;;;;;6.94;60.89355;931.0039;;;;
2022/11/20 15:32:00;;;;;;;3.2;2.5;;;;;;;6.8;60.93066;931.1152;;;;
2022/11/20 15:34:25;;;;;;;2.4;2.2;;;;;;;6.67;61.5459;931.1342;;;;
2022/11/20 15:36:50;;;;;;;4.1;2.4;;;;;;;6.49;62.86328;931.0731;;;;
2022/11/20 15:39:20;;;;;;;4.3;2.6;;;;;;;6.51;62.75488;931.0994;;;;
2022/11/20 15:41:48;;;;;;;3.8;2.8;;;;;;;6.56;63.05664;931.066;;;;
2022/11/20 15:44:13;;;;;;;6;5.1;;;;;;;6.39;63.21191;931.0778;;;;
2022/11/20 15:46:39;;;;;;;4.1;3.2;;;;;;;6.28;63.13965;931.0115;;;;
2022/11/20 15:49:04;;;;;;;3.8;2.8;;;;;;;6.28;62.81152;930.9617;;;;
2022/11/20 15:51:32;;;;;;;6.4;4.2;;;;;;;6.31;63.11035;931.0736;;;;
2022/11/20 15:53:57;;;;;;;5.7;4.2;;;;;;;6.19;63.1377;931.1167;;;;
2022/11/20 15:56:23;;;;;;;5.8;4.3;;;;;;;5.94;64.41211;931.161;;;;
2022/11/20 15:58:48;;;;;;;8.7;5.6;;;;;;;5.98;65.04883;931.1213;;;;
2022/11/20 16:01:14;;;;;;;11.4;5.8;;;;;;;5.97;64.97949;931.1511;;;;
2022/11/20 16:03:39;;;;;;;12.6;9.3;;;;;;;5.85;65.13184;931.1475;;;;
2022/11/20 16:06:07;;;;;;;7.9;5.7;;;;;;;5.76;64.97266;931.1324;;;;
2022/11/20 16:08:32;;;;;;;7.6;5.6;;;;;;;5.72;66.11719;931.1586;;;;
2022/11/20 16:11:01;;;;;;;6.8;5.5;;;;;;;5.74;66.70801;931.1961;;;;
2022/11/20 16:15:52;;;;;;;6.3;5.6;;;;;;;5.51;66.68262;931.2559;;;;
2022/11/20 16:18:17;;;;;;;7.2;6.5;;;;;;;5.23;66.84277;931.355;;;;
2022/11/20 16:20:47;;;;;;;9.5;8.6;;;;;;;5.26;67.02734;931.3089;;;;
2022/11/20 16:23:12;;;;;;;7.6;6;;;;;;;5.14;66.08398;931.3816;;;;
2022/11/20 16:25:38;;;;;;;8.1;5.7;;;;;;;5.21;65.6875;931.3467;;;;